Beauregard Regional Airport
KDRI : now visible

Airfield :











YOU CAN JOIN US ON...

 
LOGIN :

Register | Disclaimer

   EN    FR    IT 

 









Legend :    VFR   Marginal VFR   IFR   Intensive IFR   Very Intensive IFR
Visi :
Ceiling :
>= 8 km
>= 3000ft
5 to 8 km
1000 to 3000 ft
1500m to 5 km
500 to 1000 ft
800 to 1500m
200 to 500 ft
< 800m
< 200 ft
Symbols :   Thunderstorms  Fog  Heavy snow  Heavy precipitations  Wind > 20 kt






- Airport Elevation : 202 ft


KDRI - Beauregard Regional

CURRENT METAR :
  • 230215Z AUTO 00000KT 10SM OVC100 17/08 A3008 RMK AO2 T01700080

EXPIRED METARs :
  • 230155Z AUTO 00000KT 4SM HZ OVC100 17/08 A3008 RMK AO2 T01710081
  • 230135Z AUTO 00000KT 10SM BKN100 17/08 A3008 RMK AO2 T01710076
  • 230115Z AUTO 00000KT 10SM SCT100 17/07 A3007 RMK AO2 T01740072
  • 230055Z AUTO 00000KT 10SM CLR 18/07 A3007 RMK AO2 T01780070
  • 230035Z AUTO 12003KT 10SM CLR 19/07 A3006 RMK AO2 T01850066
  • 230015Z AUTO 11003KT 10SM CLR 19/06 A3006 RMK AO2 T01930057
  • 222355Z AUTO 13006KT 10SM SCT100 20/05 A3005 RMK AO2 T02000054 10217 20191
  • 222335Z AUTO 13007KT 10SM CLR 20/05 A3005 RMK AO2 T02030054

TAF N/A
KZHU FIR / North America



MET'MAP, your aeronautical weather chart ! - Copyright ORBIFLY December 2007 - Disclaimer

ORBIFLY MET'MAP TEAM :

Programming & Development : Alexandra Zaïnal
Concept & original design : Baudouin d'Aumeries
Assistance for programming : Marc-Olivier Méhu
Technical & hardware support : Manuel Goepfert

Contact : metmap@orbifly.com




SOURCES & CREDITS :

   NOAA       Earth
Advisory